sensor_id;sensor_type;location;lat;lon;timestamp;pressure;altitude;pressure_sealevel;temperature;humidity
32733;BME280;11867;51.198;11.966;2023-05-07T00:00:46;100855.44;;;11.90;95.06
32733;BME280;11867;51.198;11.966;2023-05-07T00:01:47;100865.81;;;12.03;94.51
32733;BME280;11867;51.198;11.966;2023-05-07T00:02:50;100854.59;;;11.95;93.84
32733;BME280;11867;51.198;11.966;2023-05-07T00:03:51;100859.81;;;11.81;95.31
32733;BME280;11867;51.198;11.966;2023-05-07T00:04:54;100854.34;;;11.86;94.92
32733;BME280;11867;51.198;11.966;2023-05-07T00:05:57;100848.00;;;12.11;94.09
32733;BME280;11867;51.198;11.966;2023-05-07T00:07:01;100847.72;;;12.18;93.44
32733;BME280;11867;51.198;11.966;2023-05-07T00:08:02;100851.59;;;11.96;94.18
32733;BME280;11867;51.198;11.966;2023-05-07T00:09:05;100844.25;;;11.76;95.50
32733;BME280;11867;51.198;11.966;2023-05-07T00:10:07;100846.41;;;11.95;95.57
32733;BME280;11867;51.198;11.966;2023-05-07T00:11:11;100843.19;;;11.51;97.59
32733;BME280;11867;51.198;11.966;2023-05-07T00:12:12;100843.44;;;11.81;97.19
32733;BME280;11867;51.198;11.966;2023-05-07T00:13:15;100845.88;;;11.93;96.49
32733;BME280;11867;51.198;11.966;2023-05-07T00:14:17;100839.09;;;11.64;98.08
32733;BME280;11867;51.198;11.966;2023-05-07T00:15:19;100843.75;;;11.33;100.00
32733;BME280;11867;51.198;11.966;2023-05-07T00:16:21;100842.13;;;11.47;100.00
32733;BME280;11867;51.198;11.966;2023-05-07T00:17:23;100843.19;;;11.51;99.73
32733;BME280;11867;51.198;11.966;2023-05-07T00:18:25;100838.81;;;11.30;100.00
32733;BME280;11867;51.198;11.966;2023-05-07T00:19:27;100839.91;;;11.24;100.00
32733;BME280;11867;51.198;11.966;2023-05-07T00:20:29;100840.19;;;11.48;100.00
32733;BME280;11867;51.198;11.966;2023-05-07T00:21:33;100838.25;;;11.74;99.35
32733;BME280;11867;51.198;11.966;2023-05-07T00:22:36;100839.88;;;11.96;98.31
32733;BME280;11867;51.198;11.966;2023-05-07T00:23:39;100840.69;;;11.76;98.56
32733;BME280;11867;51.198;11.966;2023-05-07T00:24:40;100845.38;;;11.70;98.92
32733;BME280;11867;51.198;11.966;2023-05-07T00:25:43;100844.28;;;11.61;99.56
32733;BME280;11867;51.198;11.966;2023-05-07T00:26:45;100850.81;;;11.65;100.00
32733;BME280;11867;51.198;11.966;2023-05-07T00:27:47;100850.56;;;11.66;99.92
32733;BME280;11867;51.198;11.966;2023-05-07T00:28:49;100845.06;;;11.77;98.76
32733;BME280;11867;51.198;11.966;2023-05-07T00:29:51;100851.31;;;11.82;98.64
32733;BME280;11867;51.198;11.966;2023-05-07T00:30:53;100858.72;;;11.82;98.43
32733;BME280;11867;51.198;11.966;2023-05-07T00:31:56;100849.66;;;12.07;97.37
32733;BME280;11867;51.198;11.966;2023-05-07T00:32:57;100853.69;;;12.25;95.89
32733;BME280;11867;51.198;11.966;2023-05-07T00:34:00;100851.78;;;12.25;95.47
32733;BME280;11867;51.198;11.966;2023-05-07T00:35:01;100849.59;;;12.27;95.41
32733;BME280;11867;51.198;11.966;2023-05-07T00:36:04;100848.50;;;12.28;95.52
32733;BME280;11867;51.198;11.966;2023-05-07T00:37:06;100845.31;;;12.01;95.93
32733;BME280;11867;51.198;11.966;2023-05-07T00:38:11;100848.34;;;11.89;97.06
32733;BME280;11867;51.198;11.966;2023-05-07T00:39:13;100848.31;;;11.84;97.17
32733;BME280;11867;51.198;11.966;2023-05-07T00:40:15;100847.78;;;11.97;97.08
32733;BME280;11867;51.198;11.966;2023-05-07T00:41:17;100849.63;;;12.17;96.05
32733;BME280;11867;51.198;11.966;2023-05-07T00:42:19;100855.69;;;12.04;96.05
32733;BME280;11867;51.198;11.966;2023-05-07T00:43:22;100860.56;;;12.17;94.61
32733;BME280;11867;51.198;11.966;2023-05-07T00:44:24;100853.81;;;11.68;97.27
32733;BME280;11867;51.198;11.966;2023-05-07T00:45:27;100856.00;;;11.71;97.82
32733;BME280;11867;51.198;11.966;2023-05-07T00:46:30;100859.53;;;11.77;96.97
32733;BME280;11867;51.198;11.966;2023-05-07T00:47:32;100860.94;;;11.64;98.07
32733;BME280;11867;51.198;11.966;2023-05-07T00:48:35;100865.03;;;11.57;98.33
32733;BME280;11867;51.198;11.966;2023-05-07T00:49:38;100875.69;;;11.48;98.78
32733;BME280;11867;51.198;11.966;2023-05-07T00:50:42;100866.94;;;11.56;98.00
32733;BME280;11867;51.198;11.966;2023-05-07T00:51:45;100865.56;;;11.74;97.66
32733;BME280;11867;51.198;11.966;2023-05-07T00:52:47;100864.75;;;11.89;96.77
32733;BME280;11867;51.198;11.966;2023-05-07T00:53:50;100862.81;;;11.95;95.45
32733;BME280;11867;51.198;11.966;2023-05-07T00:54:53;100864.69;;;12.09;95.36
32733;BME280;11867;51.198;11.966;2023-05-07T00:55:55;100861.69;;;12.06;94.43
32733;BME280;11867;51.198;11.966;2023-05-07T00:56:58;100869.66;;;11.61;96.32
32733;BME280;11867;51.198;11.966;2023-05-07T00:58:00;100866.41;;;11.64;97.07
32733;BME280;11867;51.198;11.966;2023-05-07T00:59:03;100868.31;;;11.43;97.91
32733;BME280;11867;51.198;11.966;2023-05-07T01:00:06;100859.03;;;11.14;100.00
32733;BME280;11867;51.198;11.966;2023-05-07T01:01:09;100875.13;;;11.20;100.00
32733;BME280;11867;51.198;11.966;2023-05-07T01:02:12;100873.47;;;11.24;100.00
32733;BME280;11867;51.198;11.966;2023-05-07T01:03:13;100873.22;;;11.36;99.25
32733;BME280;11867;51.198;11.966;2023-05-07T01:04:16;100874.28;;;11.09;100.00
32733;BME280;11867;51.198;11.966;2023-05-07T01:05:20;100874.84;;;11.22;100.00
32733;BME280;11867;51.198;11.966;2023-05-07T01:06:25;100869.41;;;11.27;99.90
32733;BME280;11867;51.198;11.966;2023-05-07T01:07:29;100871.31;;;11.11;100.00
32733;BME280;11867;51.198;11.966;2023-05-07T01:08:32;100876.50;;;11.13;100.00
32733;BME280;11867;51.198;11.966;2023-05-07T01:09:37;100877.88;;;11.10;100.00
32733;BME280;11867;51.198;11.966;2023-05-07T01:10:40;100871.59;;;11.35;100.00
32733;BME280;11867;51.198;11.966;2023-05-07T01:11:44;100870.50;;;11.31;98.87
32733;BME280;11867;51.198;11.966;2023-05-07T01:12:47;100859.28;;;11.07;100.00
32733;BME280;11867;51.198;11.966;2023-05-07T01:13:50;100867.75;;;11.16;100.00
32733;BME280;11867;51.198;11.966;2023-05-07T01:14:53;100870.50;;;11.31;100.00
32733;BME280;11867;51.198;11.966;2023-05-07T01:15:55;100862.31;;;11.21;99.66
32733;BME280;11867;51.198;11.966;2023-05-07T01:16:58;100871.03;;;11.02;100.00
32733;BME280;11867;51.198;11.966;2023-05-07T01:18:00;100862.31;;;11.21;100.00
32733;BME280;11867;51.198;11.966;2023-05-07T01:19:02;100863.66;;;11.03;100.00
32733;BME280;11867;51.198;11.966;2023-05-07T01:20:05;100860.91;;;10.87;100.00
32733;BME280;11867;51.198;11.966;2023-05-07T01:21:10;100856.84;;;11.00;100.00
32733;BME280;11867;51.198;11.966;2023-05-07T01:22:15;100855.16;;;10.89;100.00
32733;BME280;11867;51.198;11.966;2023-05-07T01:23:20;100859.31;;;11.02;100.00
32733;BME280;11867;51.198;11.966;2023-05-07T01:24:22;100849.72;;;10.94;100.00
32733;BME280;11867;51.198;11.966;2023-05-07T01:25:24;100857.66;;;11.06;100.00
32733;BME280;11867;51.198;11.966;2023-05-07T01:26:27;100862.03;;;11.02;100.00
32733;BME280;11867;51.198;11.966;2023-05-07T01:27:29;100858.75;;;11.20;100.00
32733;BME280;11867;51.198;11.966;2023-05-07T01:28:31;100868.03;;;11.35;100.00
32733;BME280;11867;51.198;11.966;2023-05-07T01:29:33;100874.03;;;11.26;100.00
32733;BME280;11867;51.198;11.966;2023-05-07T01:30:35;100870.47;;;11.05;100.00
32733;BME280;11867;51.198;11.966;2023-05-07T01:31:39;100870.97;;;10.87;100.00
32733;BME280;11867;51.198;11.966;2023-05-07T01:32:43;100872.66;;;10.98;100.00
32733;BME280;11867;51.198;11.966;2023-05-07T01:33:49;100875.88;;;10.80;100.00
32733;BME280;11867;51.198;11.966;2023-05-07T01:34:52;100877.81;;;10.95;100.00
32733;BME280;11867;51.198;11.966;2023-05-07T01:35:56;100882.47;;;10.94;100.00
32733;BME280;11867;51.198;11.966;2023-05-07T01:37:00;100883.53;;;10.88;100.00
32733;BME280;11867;51.198;11.966;2023-05-07T01:38:03;100881.91;;;10.97;100.00
32733;BME280;11867;51.198;11.966;2023-05-07T01:39:08;100884.94;;;11.06;100.00
32733;BME280;11867;51.198;11.966;2023-05-07T01:40:11;100878.06;;;10.78;100.00
32733;BME280;11867;51.198;11.966;2023-05-07T01:41:13;100879.97;;;10.82;100.00
32733;BME280;11867;51.198;11.966;2023-05-07T01:42:16;100883.25;;;10.84;100.00
32733;BME280;11867;51.198;11.966;2023-05-07T01:43:17;100875.91;;;10.90;100.00
32733;BME280;11867;51.198;11.966;2023-05-07T01:44:21;100874.56;;;10.98;100.00
32733;BME280;11867;51.198;11.966;2023-05-07T01:45:23;100875.94;;;11.10;100.00
32733;BME280;11867;51.198;11.966;2023-05-07T01:46:27;100872.94;;;11.02;100.00
32733;BME280;11867;51.198;11.966;2023-05-07T01:47:29;100874.28;;;11.09;100.00
32733;BME280;11867;51.198;11.966;2023-05-07T01:48:32;100874.31;;;11.30;99.14
32733;BME280;11867;51.198;11.966;2023-05-07T01:49:34;100883.53;;;10.83;99.70
32733;BME280;11867;51.198;11.966;2023-05-07T01:50:37;100877.47;;;10.70;100.00
32733;BME280;11867;51.198;11.966;2023-05-07T01:51:39;100877.25;;;10.77;100.00
32733;BME280;11867;51.198;11.966;2023-05-07T01:52:42;100877.03;;;11.15;100.00
32733;BME280;11867;51.198;11.966;2023-05-07T01:53:44;100875.13;;;11.25;99.33
32733;BME280;11867;51.198;11.966;2023-05-07T01:54:50;100881.38;;;11.05;98.38
32733;BME280;11867;51.198;11.966;2023-05-07T01:55:52;100880.28;;;10.96;100.00
32733;BME280;11867;51.198;11.966;2023-05-07T01:56:56;100876.97;;;10.74;100.00
32733;BME280;11867;51.198;11.966;2023-05-07T01:57:57;100879.91;;;10.62;100.00
32733;BME280;11867;51.198;11.966;2023-05-07T01:59:00;100874.75;;;10.70;100.00
32733;BME280;11867;51.198;11.966;2023-05-07T02:00:02;100872.88;;;10.71;100.00
32733;BME280;11867;51.198;11.966;2023-05-07T02:01:07;100881.00;;;10.56;100.00
32733;BME280;11867;51.198;11.966;2023-05-07T02:02:09;100873.91;;;10.60;100.00
32733;BME280;11867;51.198;11.966;2023-05-07T02:03:11;100870.88;;;10.46;100.00
32733;BME280;11867;51.198;11.966;2023-05-07T02:04:13;100869.72;;;10.32;100.00
32733;BME280;11867;51.198;11.966;2023-05-07T02:05:16;100866.53;;;10.60;100.00
32733;BME280;11867;51.198;11.966;2023-05-07T02:06:17;100865.19;;;10.53;100.00
32733;BME280;11867;51.198;11.966;2023-05-07T02:07:20;100872.25;;;10.54;100.00
32733;BME280;11867;51.198;11.966;2023-05-07T02:08:22;100870.28;;;10.39;100.00
32733;BME280;11867;51.198;11.966;2023-05-07T02:09:24;100864.75;;;10.23;100.00
32733;BME280;11867;51.198;11.966;2023-05-07T02:10:27;100870.22;;;10.28;100.00
32733;BME280;11867;51.198;11.966;2023-05-07T02:11:29;100873.75;;;10.24;100.00
32733;BME280;11867;51.198;11.966;2023-05-07T02:12:31;100868.81;;;10.16;100.00
32733;BME280;11867;51.198;11.966;2023-05-07T02:13:34;100875.91;;;10.22;100.00
32733;BME280;11867;51.198;11.966;2023-05-07T02:14:36;100875.31;;;10.09;100.00
32733;BME280;11867;51.198;11.966;2023-05-07T02:15:38;100875.59;;;10.13;100.00
32733;BME280;11867;51.198;11.966;2023-05-07T02:16:40;100878.03;;;10.15;100.00
32733;BME280;11867;51.198;11.966;2023-05-07T02:17:58;100879.63;;;10.53;100.00
32733;BME280;11867;51.198;11.966;2023-05-07T02:19:00;100884.59;;;10.77;100.00
32733;BME280;11867;51.198;11.966;2023-05-07T02:20:03;100887.47;;;10.39;100.00
32733;BME280;11867;51.198;11.966;2023-05-07T02:21:05;100883.91;;;10.39;100.00
32733;BME280;11867;51.198;11.966;2023-05-07T02:22:07;100882.59;;;10.46;100.00
32733;BME280;11867;51.198;11.966;2023-05-07T02:23:09;100885.16;;;10.79;100.00
32733;BME280;11867;51.198;11.966;2023-05-07T02:24:11;100883.44;;;10.57;100.00
32733;BME280;11867;51.198;11.966;2023-05-07T02:25:13;100889.19;;;10.61;100.00
32733;BME280;11867;51.198;11.966;2023-05-07T02:26:17;100889.22;;;10.71;100.00
32733;BME280;11867;51.198;11.966;2023-05-07T02:27:19;100885.63;;;10.60;100.00
32733;BME280;11867;51.198;11.966;2023-05-07T02:28:22;100894.69;;;10.71;100.00
32733;BME280;11867;51.198;11.966;2023-05-07T02:29:23;100885.44;;;10.82;100.00
32733;BME280;11867;51.198;11.966;2023-05-07T02:30:26;100894.47;;;10.98;98.82
32733;BME280;11867;51.198;11.966;2023-05-07T02:31:28;100884.09;;;10.90;99.08
32733;BME280;11867;51.198;11.966;2023-05-07T02:32:30;100891.75;;;11.03;98.28
32733;BME280;11867;51.198;11.966;2023-05-07T02:33:32;100884.94;;;11.11;97.14
32733;BME280;11867;51.198;11.966;2023-05-07T02:34:36;100893.94;;;10.96;97.45
32733;BME280;11867;51.198;11.966;2023-05-07T02:35:37;100889.53;;;10.85;98.53
32733;BME280;11867;51.198;11.966;2023-05-07T02:36:40;100887.38;;;10.92;98.10
32733;BME280;11867;51.198;11.966;2023-05-07T02:37:41;100891.50;;;11.15;97.98
32733;BME280;11867;51.198;11.966;2023-05-07T02:38:44;100894.16;;;10.79;98.09
32733;BME280;11867;51.198;11.966;2023-05-07T02:39:45;100899.16;;;10.35;100.00
32733;BME280;11867;51.198;11.966;2023-05-07T02:40:48;100901.88;;;10.29;100.00
32733;BME280;11867;51.198;11.966;2023-05-07T02:41:51;100899.44;;;9.90;100.00
32733;BME280;11867;51.198;11.966;2023-05-07T02:42:53;100902.69;;;9.87;100.00
32733;BME280;11867;51.198;11.966;2023-05-07T02:43:55;100901.38;;;10.00;100.00
32733;BME280;11867;51.198;11.966;2023-05-07T02:44:57;100895.09;;;10.37;100.00
32733;BME280;11867;51.198;11.966;2023-05-07T02:46:03;100896.16;;;10.31;100.00
32733;BME280;11867;51.198;11.966;2023-05-07T02:47:06;100905.09;;;10.26;100.00
32733;BME280;11867;51.198;11.966;2023-05-07T02:48:09;100886.81;;;10.27;100.00
32733;BME280;11867;51.198;11.966;2023-05-07T02:49:12;100889.88;;;10.30;100.00
32733;BME280;11867;51.198;11.966;2023-05-07T02:50:13;100891.47;;;10.21;100.00
32733;BME280;11867;51.198;11.966;2023-05-07T02:51:19;100893.47;;;10.36;100.00
32733;BME280;11867;51.198;11.966;2023-05-07T02:52:22;100895.81;;;10.22;100.00
32733;BME280;11867;51.198;11.966;2023-05-07T02:53:25;100893.09;;;10.22;100.00
32733;BME280;11867;51.198;11.966;2023-05-07T02:54:27;100890.59;;;10.21;100.00
32733;BME280;11867;51.198;11.966;2023-05-07T02:55:30;100889.63;;;10.32;100.00
32733;BME280;11867;51.198;11.966;2023-05-07T02:56:31;100889.19;;;10.08;100.00
32733;BME280;11867;51.198;11.966;2023-05-07T02:57:35;100892.09;;;10.39;100.00
32733;BME280;11867;51.198;11.966;2023-05-07T02:58:36;100894.00;;;10.38;100.00
32733;BME280;11867;51.198;11.966;2023-05-07T02:59:41;100891.44;;;10.79;100.00
32733;BME280;11867;51.198;11.966;2023-05-07T03:00:43;100892.53;;;10.83;98.60
32733;BME280;11867;51.198;11.966;2023-05-07T03:01:45;100894.72;;;10.81;99.02
32733;BME280;11867;51.198;11.966;2023-05-07T03:02:47;100897.91;;;10.58;99.39
32733;BME280;11867;51.198;11.966;2023-05-07T03:03:49;100892.50;;;10.73;99.11
32733;BME280;11867;51.198;11.966;2023-05-07T03:04:51;100891.66;;;10.67;98.84
32733;BME280;11867;51.198;11.966;2023-05-07T03:05:53;100890.53;;;10.53;99.97
32733;BME280;11867;51.198;11.966;2023-05-07T03:06:55;100895.22;;;10.63;100.00
32733;BME280;11867;51.198;11.966;2023-05-07T03:07:57;100887.31;;;10.72;99.23
32733;BME280;11867;51.198;11.966;2023-05-07T03:08:59;100889.00;;;10.93;98.60
32733;BME280;11867;51.198;11.966;2023-05-07T03:10:01;100888.47;;;10.96;97.44
32733;BME280;11867;51.198;11.966;2023-05-07T03:11:03;100890.41;;;10.96;97.44
32733;BME280;11867;51.198;11.966;2023-05-07T03:12:06;100879.19;;;10.97;97.31
32733;BME280;11867;51.198;11.966;2023-05-07T03:13:09;100886.00;;;10.84;97.94
32733;BME280;11867;51.198;11.966;2023-05-07T03:14:12;100881.88;;;10.87;98.47
32733;BME280;11867;51.198;11.966;2023-05-07T03:15:13;100887.53;;;10.60;98.77
32733;BME280;11867;51.198;11.966;2023-05-07T03:16:16;100888.16;;;10.77;98.76
32733;BME280;11867;51.198;11.966;2023-05-07T03:17:17;100883.78;;;10.71;98.88
32733;BME280;11867;51.198;11.966;2023-05-07T03:18:20;100885.47;;;10.87;98.89
32733;BME280;11867;51.198;11.966;2023-05-07T03:19:21;100885.50;;;11.13;97.71
32733;BME280;11867;51.198;11.966;2023-05-07T03:20:24;100897.16;;;10.78;97.72
32733;BME280;11867;51.198;11.966;2023-05-07T03:21:26;100884.53;;;10.51;100.00
32733;BME280;11867;51.198;11.966;2023-05-07T03:22:28;100888.75;;;10.95;99.45
32733;BME280;11867;51.198;11.966;2023-05-07T03:23:30;100896.31;;;10.67;98.84
32733;BME280;11867;51.198;11.966;2023-05-07T03:24:32;100892.75;;;10.61;99.95
32733;BME280;11867;51.198;11.966;2023-05-07T03:25:34;100897.59;;;10.54;100.00
32733;BME280;11867;51.198;11.966;2023-05-07T03:26:37;100882.41;;;10.79;99.58
32733;BME280;11867;51.198;11.966;2023-05-07T03:27:38;100887.56;;;10.70;98.78
32733;BME280;11867;51.198;11.966;2023-05-07T03:28:42;100891.09;;;10.60;99.42
32733;BME280;11867;51.198;11.966;2023-05-07T03:29:43;100891.13;;;10.65;99.10
32733;BME280;11867;51.198;11.966;2023-05-07T03:30:46;100889.41;;;10.44;100.00
32733;BME280;11867;51.198;11.966;2023-05-07T03:31:47;100895.50;;;10.72;100.00
32733;BME280;11867;51.198;11.966;2023-05-07T03:32:50;100895.50;;;10.77;99.59
32733;BME280;11867;51.198;11.966;2023-05-07T03:33:53;100887.91;;;10.84;99.37
32733;BME280;11867;51.198;11.966;2023-05-07T03:34:55;100893.38;;;10.94;98.48
32733;BME280;11867;51.198;11.966;2023-05-07T03:35:57;100893.34;;;10.84;98.84
32733;BME280;11867;51.198;11.966;2023-05-07T03:36:59;100894.97;;;10.85;98.79
32733;BME280;11867;51.198;11.966;2023-05-07T03:38:02;100890.16;;;11.13;98.03
32733;BME280;11867;51.198;11.966;2023-05-07T03:39:04;100895.03;;;11.16;97.91
32733;BME280;11867;51.198;11.966;2023-05-07T03:40:07;100893.41;;;11.15;98.56
32733;BME280;11867;51.198;11.966;2023-05-07T03:41:09;100887.97;;;11.25;97.48
32733;BME280;11867;51.198;11.966;2023-05-07T03:42:12;100891.47;;;10.95;97.79
32733;BME280;11867;51.198;11.966;2023-05-07T03:43:13;100888.50;;;11.11;97.74
32733;BME280;11867;51.198;11.966;2023-05-07T03:44:17;100893.16;;;11.21;97.04
32733;BME280;11867;51.198;11.966;2023-05-07T03:45:18;100889.59;;;11.10;97.93
32733;BME280;11867;51.198;11.966;2023-05-07T03:46:21;100899.03;;;10.67;99.51
32733;BME280;11867;51.198;11.966;2023-05-07T03:47:29;100901.25;;;10.75;99.66
32733;BME280;11867;51.198;11.966;2023-05-07T03:48:31;100890.69;;;11.04;98.88
32733;BME280;11867;51.198;11.966;2023-05-07T03:49:33;100888.75;;;10.89;98.75
32733;BME280;11867;51.198;11.966;2023-05-07T03:50:37;100894.94;;;10.75;99.21
32733;BME280;11867;51.198;11.966;2023-05-07T03:51:39;100896.25;;;10.52;100.00
32733;BME280;11867;51.198;11.966;2023-05-07T03:52:42;100890.84;;;10.67;100.00
32733;BME280;11867;51.198;11.966;2023-05-07T03:53:43;100884.59;;;10.72;100.00
32733;BME280;11867;51.198;11.966;2023-05-07T03:54:46;100885.06;;;10.58;100.00
32733;BME280;11867;51.198;11.966;2023-05-07T03:55:47;100883.97;;;10.54;100.00
32733;BME280;11867;51.198;11.966;2023-05-07T03:56:50;100881.19;;;10.34;100.00
32733;BME280;11867;51.198;11.966;2023-05-07T03:57:52;100885.41;;;10.67;100.00
32733;BME280;11867;51.198;11.966;2023-05-07T03:58:54;100884.00;;;10.64;100.00
32733;BME280;11867;51.198;11.966;2023-05-07T03:59:57;100885.91;;;10.64;100.00
32733;BME280;11867;51.198;11.966;2023-05-07T04:01:00;100883.50;;;10.67;100.00
32733;BME280;11867;51.198;11.966;2023-05-07T04:02:02;100890.59;;;10.74;100.00
32733;BME280;11867;51.198;11.966;2023-05-07T04:03:06;100893.81;;;10.50;100.00
32733;BME280;11867;51.198;11.966;2023-05-07T04:04:08;100896.44;;;10.35;100.00
32733;BME280;11867;51.198;11.966;2023-05-07T04:05:10;100903.09;;;10.59;100.00
32733;BME280;11867;51.198;11.966;2023-05-07T04:06:12;100898.16;;;10.56;100.00
32733;BME280;11867;51.198;11.966;2023-05-07T04:07:14;100908.91;;;10.83;99.95
32733;BME280;11867;51.198;11.966;2023-05-07T04:08:16;100905.41;;;11.03;98.46
32733;BME280;11867;51.198;11.966;2023-05-07T04:09:18;100913.88;;;11.02;97.71
32733;BME280;11867;51.198;11.966;2023-05-07T04:10:20;100910.06;;;11.08;97.18
32733;BME280;11867;51.198;11.966;2023-05-07T04:11:22;100910.84;;;11.03;97.72
32733;BME280;11867;51.198;11.966;2023-05-07T04:12:24;100917.88;;;10.74;98.25
32733;BME280;11867;51.198;11.966;2023-05-07T04:13:26;100915.19;;;10.84;98.71
32733;BME280;11867;51.198;11.966;2023-05-07T04:14:28;100910.59;;;11.00;97.94
32733;BME280;11867;51.198;11.966;2023-05-07T04:15:32;100910.47;;;10.64;99.02
32733;BME280;11867;51.198;11.966;2023-05-07T04:16:34;100920.22;;;10.49;99.55
32733;BME280;11867;51.198;11.966;2023-05-07T04:17:37;100918.16;;;10.77;99.86
32733;BME280;11867;51.198;11.966;2023-05-07T04:18:39;100916.69;;;10.44;99.97
32733;BME280;11867;51.198;11.966;2023-05-07T04:19:41;100916.19;;;10.57;100.00
32733;BME280;11867;51.198;11.966;2023-05-07T04:20:47;100922.50;;;10.73;100.00
32733;BME280;11867;51.198;11.966;2023-05-07T04:21:50;100923.84;;;10.70;100.00
32733;BME280;11867;51.198;11.966;2023-05-07T04:22:53;100916.19;;;10.62;100.00
32733;BME280;11867;51.198;11.966;2023-05-07T04:23:54;100922.00;;;10.81;99.63
32733;BME280;11867;51.198;11.966;2023-05-07T04:24:56;100920.56;;;10.68;99.55
32733;BME280;11867;51.198;11.966;2023-05-07T04:25:58;100919.03;;;10.98;99.02
32733;BME280;11867;51.198;11.966;2023-05-07T04:27:02;100913.34;;;11.15;97.42
32733;BME280;11867;51.198;11.966;2023-05-07T04:28:04;100920.13;;;11.02;97.66
32733;BME280;11867;51.198;11.966;2023-05-07T04:29:07;100922.72;;;10.61;98.74
32733;BME280;11867;51.198;11.966;2023-05-07T04:30:09;100921.16;;;10.76;99.48
32733;BME280;11867;51.198;11.966;2023-05-07T04:31:14;100916.97;;;10.58;99.56
32733;BME280;11867;51.198;11.966;2023-05-07T04:32:16;100920.56;;;10.68;100.00
32733;BME280;11867;51.198;11.966;2023-05-07T04:33:19;100920.13;;;10.92;99.00
32733;BME280;11867;51.198;11.966;2023-05-07T04:34:20;100923.63;;;10.82;98.64
32733;BME280;11867;51.198;11.966;2023-05-07T04:35:23;100913.00;;;10.86;98.61
32733;BME280;11867;51.198;11.966;2023-05-07T04:36:24;100918.16;;;10.82;98.96
32733;BME280;11867;51.198;11.966;2023-05-07T04:37:28;100921.66;;;10.73;99.31
32733;BME280;11867;51.198;11.966;2023-05-07T04:38:30;100915.69;;;10.76;99.44
32733;BME280;11867;51.198;11.966;2023-05-07T04:39:33;100917.25;;;10.51;100.00
32733;BME280;11867;51.198;11.966;2023-05-07T04:40:36;100920.53;;;10.53;100.00
32733;BME280;11867;51.198;11.966;2023-05-07T04:41:40;100928.81;;;10.89;100.00
32733;BME280;11867;51.198;11.966;2023-05-07T04:42:41;100925.00;;;10.80;99.29
32733;BME280;11867;51.198;11.966;2023-05-07T04:43:44;100928.81;;;10.84;99.80
32733;BME280;11867;51.198;11.966;2023-05-07T04:44:45;100924.44;;;10.83;98.98
32733;BME280;11867;51.198;11.966;2023-05-07T04:45:50;100922.31;;;11.05;97.81
32733;BME280;11867;51.198;11.966;2023-05-07T04:46:53;100925.31;;;10.99;97.50
32733;BME280;11867;51.198;11.966;2023-05-07T04:47:55;100933.59;;;10.51;99.18
32733;BME280;11867;51.198;11.966;2023-05-07T04:48:57;100934.09;;;10.38;100.00
32733;BME280;11867;51.198;11.966;2023-05-07T04:49:59;100932.69;;;10.35;100.00
32733;BME280;11867;51.198;11.966;2023-05-07T04:51:01;100938.44;;;10.34;100.00
32733;BME280;11867;51.198;11.966;2023-05-07T04:52:04;100927.53;;;10.34;100.00
32733;BME280;11867;51.198;11.966;2023-05-07T04:53:05;100936.81;;;10.43;100.00
32733;BME280;11867;51.198;11.966;2023-05-07T04:54:08;100932.56;;;10.67;100.00
32733;BME280;11867;51.198;11.966;2023-05-07T04:55:10;100934.75;;;10.70;99.37
32733;BME280;11867;51.198;11.966;2023-05-07T04:56:12;100934.19;;;10.63;99.60
32733;BME280;11867;51.198;11.966;2023-05-07T04:57:14;100940.09;;;10.45;100.00
32733;BME280;11867;51.198;11.966;2023-05-07T04:58:18;100942.25;;;10.38;100.00
32733;BME280;11867;51.198;11.966;2023-05-07T04:59:20;100939.44;;;10.27;100.00
32733;BME280;11867;51.198;11.966;2023-05-07T05:00:22;100936.78;;;10.33;100.00
32733;BME280;11867;51.198;11.966;2023-05-07T05:01:25;100933.28;;;10.47;100.00
32733;BME280;11867;51.198;11.966;2023-05-07T05:02:27;100935.25;;;10.57;99.82
32733;BME280;11867;51.198;11.966;2023-05-07T05:03:30;100935.09;;;10.84;98.84
32733;BME280;11867;51.198;11.966;2023-05-07T05:04:32;100928.78;;;10.79;98.66
32733;BME280;11867;51.198;11.966;2023-05-07T05:05:34;100935.91;;;10.80;99.23
32733;BME280;11867;51.198;11.966;2023-05-07T05:06:36;100932.53;;;10.57;99.00
32733;BME280;11867;51.198;11.966;2023-05-07T05:07:38;100930.38;;;10.64;99.65
32733;BME280;11867;51.198;11.966;2023-05-07T05:08:40;100939.94;;;10.72;99.21
32733;BME280;11867;51.198;11.966;2023-05-07T05:09:42;100944.03;;;10.75;99.35
32733;BME280;11867;51.198;11.966;2023-05-07T05:10:44;100937.44;;;10.60;99.55
32733;BME280;11867;51.198;11.966;2023-05-07T05:11:47;100944.63;;;10.82;99.71
32733;BME280;11867;51.198;11.966;2023-05-07T05:12:48;100940.06;;;10.98;98.98
32733;BME280;11867;51.198;11.966;2023-05-07T05:13:51;100949.59;;;11.05;98.08
32733;BME280;11867;51.198;11.966;2023-05-07T05:14:52;100943.56;;;10.93;96.81
32733;BME280;11867;51.198;11.966;2023-05-07T05:15:55;100946.59;;;10.92;99.34
32733;BME280;11867;51.198;11.966;2023-05-07T05:16:57;100943.66;;;11.29;97.83
32733;BME280;11867;51.198;11.966;2023-05-07T05:18:01;100946.41;;;11.55;95.90
32733;BME280;11867;51.198;11.966;2023-05-07T05:19:02;100940.41;;;11.83;97.26
32733;BME280;11867;51.198;11.966;2023-05-07T05:20:06;100939.31;;;12.05;94.26
32733;BME280;11867;51.198;11.966;2023-05-07T05:21:07;100951.31;;;12.19;92.28